Ridgecrest, North Carolina
Current Conditions -  °F | °C
As of 2:54 AM on Friday 24 Oct 2014 (Local Time) from KAVL Reporting Station
Clear Clear  
Wind Chill: 42°   Ceiling: Unl
Heat Index: 46°   Visibility: 10mi
Dew Point: 39°   Wind: 8mph
Humidity: 76%   Direction: 350°N
Pressure: 30.09"   Gusts: NA
Location:  35.62°N, 82.28°W
Report Text: KAVL 240654Z AUTO 35007KT 10SM CLR 08/04 A3009 RMK AO2 SLP179 T00780039
Loading
Personal Weather Stations






























Interactive Weather Map
Tropical Storm Tracking
New forecast layout! Learn more

10-Day Weather Forecast

Advertisements
Track Severe Weather on mobile